Pronóstico
Mapa Interactivo
Aviación
Climatología
Hidrometeorología
Agrometeorología
Estaciones Automáticas
Transparencia
OMM WMO
Portada
Institución
Noticias
Imágenes
Tsunami
Historial
Boletines y Alertas
Contactos
Buscar Contenidos
Informe del Tiempo

 

SADR31 MDSD 201200Z
METAR

METAR MDPP 201200Z 00000KT 9999 FEW018 26/24 Q1016=
METAR MDST 201200Z 00000KT 5000 BR FEW016 23/22 Q1016 BR/ ALL QDS=
METAR MDPC 201200Z 18008KT 9999 FEW020CB SCT021 26/23 Q1016 CB/E/SE=
METAR MDBH 201200Z 00000KT 9999 FEW016CB FEW018 26/24 Q1016 CB/SE=
METAR MDJB 201200Z 00000KT 4000 +RA FEW014CB SCT016 OVC070 22/21
Q1016 CB/NE/E/S=
METAR MDSD 201200Z 07004KT 9999 TS FEW018CB BKN018 26/23 Q1015
CB/S/SW/NW=
METAR MDLR 201200Z 00000KT 9999 FEW016CB FEW016 28/26 Q1017 CB/SE=
METAR MDCY 201200Z 00000KT 9999 SCT018 24/23 Q1016=
METAR MDAB 201200Z 00000KT 9999 SCT016 26/25 Q1017=